Station: Mareeba  

  Atmospheric Gas Attenuation - ITU Rec 676-11   ----------------- dB/100km -----------------
Date Time Temp RH % AH g/m3 Dew Point Wind Direction Speed kph Gust kph Barometer mB Rainfall Since 9am 24GHz 47GHz 76GHz 122GHz 134GHz 241GHz
08/05 12:30 26.6 56 14.1 17.1 22 28 1014.2 0 30.5 30.8 54.4 143.6 150.8 523.1
08/05 12:20 25.9 59 14.28 17.5 20 24 1014.3 0 30.9 31.3 55.6 146.8 154.6 536.2
08/05 12:10 26 58 14.12 17.1 17 26 1014.5 0 30.5 31.0 54.9 144.9 152.2 528.2
08/05 12:00 26 62 15.09 18.2 19 30 1014.7 0 32.6 32.7 58.9 155.6 165.4 574.1
08/05 11:50 24.7 64 14.49 17.4 24 28 1014.9 0 31.4 32.1 57.4 151.5 159.9 554.8
08/05 11:40 25.2 63 14.67 17.7 26 30 1014.9 0 31.8 32.3 57.8 152.6 161.3 559.9
08/05 11:30 24.9 62 14.19 17.1 28 37 1014.9 0 30.8 31.6 56.0 147.8 155.4 539.1
08/05 11:20 25 63 14.5 17.5 20 32 1015 0 31.4 32.0 57.2 151.1 159.4 553.2
08/05 11:10 24.7 62 14.03 16.9 28 32 1015.1 0 30.5 31.4 55.5 146.4 153.7 533.0
08/05 11:00 25.6 61 14.52 17.5 24 37 1015.1 0 31.4 31.9 56.9 150.1 158.5 550.0
08/05 10:50 26.1 55 13.47 16.6 17 19 1015.3 0 29.2 30.0 52.3 137.9 143.5 497.8
08/05 10:40 25.9 58 14.04 17 15 19 1015.4 0 30.4 31.0 54.7 144.4 151.5 525.5
08/05 10:30 25.6 60 14.28 17.3 22 32 1015.3 0 30.9 31.5 55.9 147.5 155.3 538.7
08/05 10:20 25.3 61 14.28 17.2 20 28 1015.4 0 30.9 31.6 56.1 148.1 155.9 540.8
08/05 10:10 24.5 63 14.1 17.2 22 24 1015.5 0 30.6 31.6 56.0 147.6 155.1 537.9
08/05 10:00 24.4 65 14.46 17.4 24 41 1015.4 0 31.4 32.2 57.5 151.8 160.2 555.7
08/05 09:50 24 67 14.58 17.5 19 22 1015.6 0 31.7 32.6 58.3 154.0 162.7 564.5
08/05 09:40 23.6 67 14.25 17.3 30 33 1015.5 0 31.0 32.2 57.2 151.0 159.0 551.4
08/05 09:30 23.6 67 14.25 17.3 28 37 1015.4 0 31.0 32.2 57.2 151.0 159.0 551.3
08/05 09:20 23.3 68 14.22 17.1 37 46 1015.5 0 31.0 32.2 57.3 151.3 159.2 552.0
08/05 09:10 23.2 71 14.76 17.6 19 24 1015.5 0 32.1 33.2 59.7 157.7 167.0 579.2
08/05 09:00 22.8 72 14.63 17.5 19 32 1015.3 0 31.9 33.1 59.5 156.9 166.0 575.7
08/05 08:50 22.7 73 14.75 17.6 20 22 1015.3 0 32.1 33.4 60.0 158.5 167.9 582.4
08/05 08:40 22.5 74 14.78 17.6 17 20 1015.2 0 32.2 33.5 60.3 159.3 168.8 585.4
08/05 08:30 22.2 75 14.72 17.6 19 26 1015 0 32.1 33.5 60.3 159.2 168.5 584.6
08/05 08:20 22.1 76 14.83 17.7 20 24 1014.9 0 32.3 33.7 60.8 160.7 170.3 590.8
08/05 08:10 21.8 77 14.77 17.6 24 28 1014.7 0 32.2 33.7 60.8 160.5 170.1 590.0
08/05 08:00 21.6 78 14.79 17.6 19 26 1014.4 0 32.3 33.8 61.0 161.2 170.8 592.4
08/05 07:50 21.5 79 14.9 17.7 19 24 1014.5 0 32.5 34.1 61.6 162.7 172.7 598.8
08/05 07:40 21.2 80 14.82 17.6 17 20 1014.3 0 32.4 34.0 61.5 162.3 172.1 597.0
08/05 07:30 21 81 14.84 17.6 20 26 1014.3 0 32.5 34.1 61.7 163.0 172.9 599.6
08/05 07:20 20.8 82 14.85 17.6 19 26 1014.3 0 32.5 34.2 61.9 163.5 173.5 601.6
08/05 07:10 20.8 82 14.85 17.6 19 20 1014.2 0 32.5 34.2 61.9 163.5 173.5 601.6
08/05 07:00 20.3 84 14.77 17.5 15 20 1014.1 0 32.4 34.3 62.0 163.6 173.4 601.4
08/05 06:50 20.4 83 14.68 17.4 17 20 1013.9 0 32.2 34.1 61.5 162.3 171.9 595.9
08/05 06:40 20.3 83 14.6 17.3 17 19 1013.8 0 32.0 34.0 61.2 161.6 170.9 592.6
08/05 06:30 20.3 84 14.77 17.5 17 24 1013.7 0 32.4 34.3 62.0 163.6 173.4 601.2
08/05 06:20 20 85 14.69 17.4 15 15 1013.8 0 32.2 34.3 61.8 163.3 172.9 599.5
08/05 06:10 19.7 87 14.77 17.5 15 19 1013.9 0 32.4 34.5 62.4 164.9 174.8 606.1
08/05 06:00 19.6 87 14.69 17.4 15 22 1013.7 0 32.3 34.4 62.2 164.1 173.8 602.6
08/05 05:50 19.4 88 14.68 17.4 11 11 1013.5 0 32.3 34.5 62.3 164.4 174.1 603.6
08/05 05:40 19.5 88 14.77 17.5 15 19 1013.4 0 32.4 34.6 62.6 165.3 175.2 607.4
08/05 05:30 19.6 89 15.02 17.7 17 24 1013.3 0 33.0 35.0 63.6 168.1 178.7 619.6
08/05 05:20 19.3 89 14.76 17.4 17 20 1013.4 0 32.4 34.7 62.7 165.6 175.5 608.5
08/05 05:10 19.5 88 14.77 17.5 19 22 1013.3 0 32.4 34.6 62.6 165.2 175.2 607.4
08/05 05:00 19.5 88 14.77 17.5 19 26 1013.1 0 32.4 34.6 62.6 165.2 175.2 607.3
08/05 04:50 19.3 89 14.76 17.4 17 20 1013.1 0 32.4 34.6 62.7 165.5 175.5 608.4
08/05 04:40 19.2 89 14.67 17.3 17 22 1013.1 0 32.2 34.5 62.4 164.6 174.4 604.5
08/05 04:30 19.2 89 14.67 17.3 19 24 1012.9 0 32.2 34.5 62.3 164.6 174.4 604.4
08/05 04:20 19.2 90 14.84 17.5 19 20 1013 0 32.6 34.8 63.1 166.7 176.9 613.3
08/05 04:10 19.2 89 14.67 17.3 19 22 1013 0 32.2 34.5 62.4 164.6 174.4 604.4
08/05 04:00 19.2 89 14.67 17.3 15 20 1012.9 0 32.2 34.5 62.3 164.6 174.4 604.4
08/05 03:50 19.2 89 14.67 17.3 13 15 1013 0 32.2 34.5 62.4 164.6 174.4 604.4
08/05 03:40 19.2 89 14.67 17.3 15 20 1012.8 0 32.3 34.5 62.3 164.6 174.3 604.4
08/05 03:30 19.4 89 14.85 17.5 15 20 1012.8 0 32.6 34.7 63.0 166.4 176.6 612.1
08/05 03:20 19.3 89 14.76 17.4 15 19 1013.1 0 32.4 34.6 62.7 165.5 175.5 608.4
08/05 03:10 19.3 89 14.76 17.4 15 17 1013.1 0 32.4 34.6 62.7 165.5 175.5 608.4
08/05 03:00 19.3 89 14.76 17.4 15 20 1013 0 32.4 34.6 62.7 165.5 175.5 608.3
08/05 02:50 19.3 89 14.76 17.4 17 20 1013.2 0 32.4 34.6 62.7 165.5 175.5 608.4
08/05 02:40 19.3 89 14.76 17.4 15 17 1013.2 0 32.4 34.6 62.7 165.5 175.5 608.4
08/05 02:30 19.3 89 14.76 17.4 17 22 1013.1 0 32.4 34.6 62.7 165.5 175.5 608.4
08/05 02:20 19.4 88 14.68 17.4 19 20 1013.3 0 32.3 34.5 62.3 164.4 174.1 603.5
08/05 02:10 19.3 88 14.59 17.3 17 20 1013.4 0 32.1 34.3 61.9 163.5 173.0 599.7
08/05 02:00 19.4 88 14.68 17.4 20 28 1013.3 0 32.3 34.5 62.3 164.4 174.1 603.5
08/05 01:50 19.4 87 14.51 17.2 19 20 1013.4 0 31.9 34.2 61.5 162.3 171.6 594.8
08/05 01:40 19.5 86 14.43 17.1 20 26 1013.4 0 31.7 34.0 61.0 161.1 170.2 589.9
08/05 01:30 19.5 86 14.43 17.1 20 28 1013.4 0 31.7 34.0 61.0 161.1 170.2 589.9
08/05 01:20 19.5 85 14.26 16.9 22 28 1013.7 0 31.3 33.7 60.3 159.2 167.7 581.3
08/05 01:10 19.5 85 14.26 16.9 20 24 1013.7 0 31.3 33.7 60.3 159.2 167.7 581.3
08/05 01:00 19.7 83 14.09 16.7 20 30 1013.7 0 31.0 33.3 59.4 156.7 164.8 571.1
08/05 00:50 19.8 83 14.18 16.8 19 20 1013.9 0 31.1 33.4 59.7 157.6 165.9 575.0
08/05 00:40 19.8 83 14.18 16.8 20 24 1014 0 31.1 33.4 59.7 157.6 165.9 575.0
08/05 00:30 19.8 82 14 16.6 19 24 1014 0 30.8 33.1 58.9 155.5 163.3 565.9
08/05 00:20 19.9 82 14.09 16.7 15 20 1014.1 0 30.9 33.2 59.2 156.4 164.4 569.8
08/05 00:10 19.8 83 14.18 16.8 19 20 1014 0 31.1 33.4 59.7 157.6 165.9 575.0
08/05 00:00 19.9 83 14.26 16.9 19 26 1014 0 31.3 33.5 60.0 158.4 166.9 578.4
07/05 23:50 19.8 84 14.35 17 17 19 1014 0 31.5 33.7 60.5 159.6 168.4 583.7
07/05 23:40 19.9 84 14.43 17.1 19 24 1014.1 0 31.7 33.8 60.8 160.4 169.4 587.1
07/05 23:30 19.8 85 14.52 17.2 20 26 1014.2 0 31.9 34.0 61.3 161.7 170.9 592.5
07/05 23:20 20.1 84 14.6 17.3 22 26 1014.3 0 32.0 34.1 61.4 162.0 171.4 594.3
07/05 23:10 19.9 84 14.43 17.1 19 20 1014.4 0 31.7 33.9 60.8 160.4 169.4 587.2
07/05 23:00 20.1 84 14.6 17.3 22 30 1014.3 0 32.0 34.1 61.4 162.0 171.4 594.3
07/05 22:50 19.9 86 14.77 17.5 22 26 1014.4 0 32.4 34.5 62.3 164.5 174.4 604.7
07/05 22:40 19.9 87 14.95 17.7 19 22 1014.6 0 32.8 34.8 63.1 166.7 177.1 614.1
07/05 22:30 20 87 15.03 17.8 19 24 1014.6 0 32.9 34.9 63.4 167.5 178.1 617.5
07/05 22:20 19.9 87 14.95 17.7 20 20 1014.7 0 32.8 34.8 63.2 166.7 177.1 614.2
07/05 22:10 20.1 86 14.95 17.7 19 20 1014.9 0 32.8 34.7 63.0 166.3 176.7 612.6
07/05 22:00 20.2 85 14.86 17.6 19 24 1014.9 0 32.6 34.5 62.5 165.0 175.1 607.2
07/05 21:50 20.5 85 15.12 17.9 19 24 1015 0 33.1 34.9 63.4 167.5 178.3 618.2
07/05 21:40 20.4 85 15.04 17.8 19 22 1015 0 32.9 34.8 63.2 166.8 177.3 614.9
07/05 21:30 20.6 84 15.03 17.8 20 26 1014.9 0 32.9 34.7 62.9 166.2 176.7 612.7
07/05 21:20 20.7 85 15.3 18.1 17 17 1015.1 0 33.5 35.1 64.1 169.3 180.5 626.0
07/05 21:10 20.6 85 15.21 18 19 20 1015 0 33.3 35.0 63.8 168.4 179.4 622.1
07/05 21:00 20.7 84 15.12 17.9 20 30 1014.9 0 33.1 34.8 63.3 167.1 177.8 616.6
07/05 20:50 20.8 84 15.21 18 26 30 1014.9 0 33.3 34.9 63.6 168.0 178.9 620.4
07/05 20:40 20.9 83 15.12 17.9 22 28 1014.9 0 33.1 34.7 63.1 166.7 177.3 615.0
07/05 20:30 20.9 83 15.12 17.9 20 28 1014.8 0 33.1 34.7 63.1 166.6 177.3 614.9
07/05 20:20 21 83 15.2 18 22 26 1014.7 0 33.2 34.8 63.4 167.4 178.2 618.2
07/05 20:10 21.1 83 15.29 18.1 20 24 1014.6 0 33.4 34.9 63.7 168.2 179.3 622.0
07/05 20:00 21.2 82 15.2 18 22 30 1014.5 0 33.2 34.7 63.2 166.9 177.7 616.5

Last Refresh: 08-May-2026 12:08:16

Bureau of Meteorology